Martha's Vineyard Express — WDC5128 — position and weather

sailwx.info

Track history (hours):
 
Tides and Currents Weather Stations Pressure Air Temp Water Temp Dewpoint Dewpoint Depression Visibility Wind Speed Wind Dir Waves Ship Positions

Martha's Vineyard Express

Owner: Interlake Leasing IV, Stamford, CT. More information available from US FCC via Universal Licensing System and Coast Guard Vessel Documentation Center.

Last reported at 2018-Apr-23 22:44 UTC. Time now 2018-Apr-24 01:10 UTC.
Position N 40°31' W 074°02'.

; draft 2.1 m.

Type: High speed craft. MMSI: 367036190.

Date/timePositionNaut miles runAvg speedWind from/ knotsBaromVisibWave heightAir tempDewpointWater temp
2018-Apr-23 22:44N 40°31' W 074°02'626.8
2018-Apr-23 22:30N 40°37' W 074°03'5 9.5
2018-Apr-23 22:01N 40°41' W 074°01'11 8.8
2018-Apr-23 20:46N 40°30' W 074°02'725.5
2018-Apr-23 20:30N 40°37' W 074°03'611.6
2018-Apr-23 20:00N 40°42' W 073°60'2 5.1
2018-Apr-23 19:30N 40°40' W 074°01'5 0.7
2018-Apr-23 12:54N 40°36' W 074°02'7 9.6
2018-Apr-23 12:12N 40°42' W 074°00'1 5.7
2018-Apr-23 12:00N 40°41' W 074°01'11 1.0
2018-Apr-23 01:14N 40°31' W 074°02'628.3
2018-Apr-23 01:01N 40°37' W 074°03'816.8
2018-Apr-23 00:30N 40°45' W 073°58'918.4
2018-Apr-23 00:01N 40°36' W 074°03'5 3.3
2018-Apr-22 22:21N 40°31' W 074°02'926.4
2018-Apr-22 22:01N 40°39' W 074°02'4 8.0
2018-Apr-22 21:30N 40°43' W 073°58'714.0
2018-Apr-22 21:01N 40°36' W 074°03'6 6.4
2018-Apr-22 20:02N 40°30' W 074°02'126.5
2018-Apr-22 19:59N 40°32' W 074°02'1122.0
2018-Apr-22 19:30N 40°42' W 074°00'1 1.4
2018-Apr-22 19:01N 40°42' W 073°59'11 9.0
2018-Apr-22 17:48N 40°32' W 074°02'725.2
2018-Apr-22 17:31N 40°39' W 074°02'612.1
2018-Apr-22 17:00N 40°44' W 073°58'917.9
2018-Apr-22 16:31N 40°36' W 074°03'6 5.1
2018-Apr-22 15:23N 40°30' W 074°02'925.6
2018-Apr-22 15:01N 40°40' W 074°01'4 7.5
2018-Apr-22 14:31N 40°43' W 073°58'816.8
2018-Apr-22 14:00N 40°35' W 074°03'11 0.9
2018-Apr-22 01:46N 40°25' W 073°60'2 6.3
2018-Apr-22 01:29N 40°26' W 074°01'1327.3
2018-Apr-22 01:01N 40°39' W 074°02'612.6
2018-Apr-22 00:30N 40°45' W 073°58'1020.3
2018-Apr-22 00:00N 40°35' W 074°03'1121.6
2018-Apr-21 23:30N 40°25' W 073°60'0 0.0
2018-Apr-21 23:00N 40°25' W 073°60'3 6.7
2018-Apr-21 22:30N 40°28' W 074°01'1427.3
2018-Apr-21 22:01N 40°41' W 074°02'3 5.5
2018-Apr-21 21:31N 40°43' W 073°59'713.8
2018-Apr-21 21:01N 40°36' W 074°03'1217.1
2018-Apr-21 20:18N 40°25' W 073°60'619.5
2018-Apr-21 20:00N 40°30' W 074°02'1223.8
2018-Apr-21 19:30N 40°42' W 074°00'0 0.7
2018-Apr-21 19:00N 40°42' W 074°00'1325.2
2018-Apr-21 18:30N 40°29' W 074°02'2 4.8
2018-Apr-21 18:00N 40°27' W 074°01'1325.6
2018-Apr-21 17:31N 40°39' W 074°02'5 9.5
2018-Apr-21 17:00N 40°43' W 073°58'816.2
2018-Apr-21 16:30N 40°36' W 074°02'1122.4
2018-Apr-21 16:00N 40°25' W 073°60'4 8.6
2018-Apr-21 15:30N 40°29' W 074°02'1225.2
2018-Apr-21 15:00N 40°41' W 074°01'3 5.4
2018-Apr-21 14:31N 40°43' W 073°58'816.5
2018-Apr-21 14:00N 40°35' W 074°02'1018.9
2018-Apr-21 13:27N 40°25' W 073°60'0 0.0
2018-Apr-21 13:00N 40°25' W 073°60'0 0.0
2018-Apr-21 03:14N 40°25' W 073°60'0 0.2
2018-Apr-21 02:59N 40°25' W 073°60'714.3
2018-Apr-21 02:30N 40°31' W 074°02'1122.5
2018-Apr-21 02:00N 40°42' W 074°00'2 4.7
2018-Apr-21 01:31N 40°44' W 073°58'1019.1
2018-Apr-21 01:00N 40°35' W 074°03'1120.7
2018-Apr-21 00:30N 40°25' W 073°60'0 0.1
2018-Apr-20 23:59N 40°25' W 073°60'0 0.2
2018-Apr-20 23:30N 40°25' W 073°60'0 0.2
2018-Apr-20 22:58N 40°25' W 073°60'1226.1
2018-Apr-20 22:31N 40°37' W 074°03'510.9
2018-Apr-20 22:00N 40°42' W 074°00'1223.5
2018-Apr-20 21:30N 40°30' W 074°02'6 9.8
2018-Apr-20 20:56N 40°25' W 073°60'1124.4
2018-Apr-20 20:30N 40°35' W 074°03'816.6
2018-Apr-20 20:00N 40°43' W 073°58'4 7.3
2018-Apr-20 19:30N 40°40' W 074°01'1223.9
2018-Apr-20 19:00N 40°28' W 074°02'3 6.4
2018-Apr-20 18:29N 40°25' W 073°60'0 0.0
2018-Apr-20 17:58N 40°25' W 073°60'0 0.0
2018-Apr-20 17:16N 40°25' W 073°60'0 0.0
2018-Apr-20 17:00N 40°25' W 073°60'0 0.0
2018-Apr-20 16:30N 40°25' W 073°60'0 0.0
2018-Apr-20 15:59N 40°25' W 073°60'0 0.0
2018-Apr-20 15:29N 40°25' W 073°60'0 0.0
2018-Apr-20 14:58N 40°25' W 073°60'0 0.0
2018-Apr-20 13:28N 40°25' W 073°60'1124.1
2018-Apr-20 13:00N 40°35' W 074°02'1019.5
2018-Apr-20 12:31N 40°45' W 073°58'815.0
2018-Apr-20 12:00N 40°38' W 074°03'1324.3
2018-Apr-20 11:29N 40°25' W 074°01'1 0.1
2018-Apr-20 03:15N 40°25' W 073°60'0 0.1
2018-Apr-20 03:00N 40°25' W 073°60'814.4
2018-Apr-20 02:28N 40°32' W 074°02'1022.4
2018-Apr-20 02:00N 40°42' W 074°00'3 5.8
2018-Apr-20 01:29N 40°45' W 073°58'1020.6
2018-Apr-20 01:00N 40°35' W 074°03'1121.2
2018-Apr-20 00:29N 40°25' W 073°60'0 0.1
2018-Apr-19 23:50N 40°25' W 073°60'0 0.0
2018-Apr-19 23:28N 40°25' W 073°60'0 0.1
2018-Apr-19 22:59N 40°25' W 073°60'1225.3
2018-Apr-19 22:31N 40°36' W 074°03'612.0
2018-Apr-19 22:01N 40°42' W 074°00'1121.5
2018-Apr-19 21:30N 40°32' W 074°02'713.2
2018-Apr-19 20:58N 40°25' W 073°60'1225.5
2018-Apr-19 20:30N 40°36' W 074°03'613.0
2018-Apr-19 20:01N 40°42' W 074°00'2 4.8
2018-Apr-19 19:31N 40°40' W 074°01'1224.0
2018-Apr-19 19:00N 40°28' W 074°01'3 6.6
2018-Apr-19 18:29N 40°25' W 073°60'0 0.0
2018-Apr-19 18:00N 40°25' W 073°60'0 0.0
2018-Apr-19 17:27N 40°25' W 073°60'0 0.0
2018-Apr-19 16:55N 40°25' W 073°60'0 0.0
2018-Apr-19 16:02N 40°25' W 073°60'0 0.1
2018-Apr-19 15:58N 40°25' W 073°60'0 0.0
2018-Apr-19 15:30N 40°25' W 073°60'0 0.0
2018-Apr-19 15:00N 40°25' W 073°60'0 0.0
2018-Apr-19 14:29N 40°25' W 073°60'0 0.0
2018-Apr-19 13:59N 40°25' W 073°60'0 0.0
2018-Apr-19 13:21N 40°25' W 073°60'821.3
2018-Apr-19 12:59N 40°32' W 074°02'1123.1
2018-Apr-19 12:31N 40°43' W 073°59'2 4.7
2018-Apr-19 12:01N 40°41' W 074°01'1325.0
2018-Apr-19 11:30N 40°28' W 074°02'3 5.5
2018-Apr-19 10:59N 40°25' W 074°02'2 3.5
2018-Apr-19 10:30N 40°25' W 073°60'0 0.0
2018-Apr-18 23:18N 40°25' W 073°60'0 0.1
2018-Apr-18 22:59N 40°25' W 073°60'1019.9
2018-Apr-18 22:30N 40°34' W 074°02'1122.2
2018-Apr-18 22:01N 40°45' W 073°58'611.8
2018-Apr-18 21:31N 40°39' W 074°02'1223.6
2018-Apr-18 21:00N 40°27' W 074°01'3 1.3
2018-Apr-18 18:44N 40°25' W 073°60'1 4.7
2018-Apr-18 18:30N 40°25' W 074°01'1018.9
2018-Apr-18 18:00N 40°35' W 074°02'817.0
2018-Apr-18 17:31N 40°43' W 073°59'3 6.1
2018-Apr-18 17:01N 40°40' W 074°01'1224.7
2018-Apr-18 16:30N 40°28' W 074°02'0 0.3
2018-Apr-18 16:00N 40°28' W 074°01'1326.0
2018-Apr-18 15:31N 40°41' W 074°02'5 9.1
2018-Apr-18 15:00N 40°44' W 073°58'816.5
2018-Apr-18 14:30N 40°37' W 074°03'1223.3
2018-Apr-18 14:00N 40°25' W 074°02'2 3.8
2018-Apr-18 13:30N 40°25' W 073°60'0 0.1
2018-Apr-18 13:00N 40°25' W 073°60'0 0.0
2018-Apr-18 12:29N 40°25' W 073°60'0 0.0
2018-Apr-18 12:00N 40°25' W 073°60'0 0.0
2018-Apr-18 11:30N 40°25' W 073°60'0 0.0
2018-Apr-17 22:01N 40°25' W 073°60'0 2.7
2018-Apr-17 22:00N 40°25' W 073°60'2 3.1
2018-Apr-17 21:25N 40°25' W 074°02'0 0.0
2018-Apr-17 21:00N 40°25' W 074°02'0 0.0
2018-Apr-17 20:26N 40°25' W 074°02'0 0.0
2018-Apr-17 20:00N 40°25' W 074°02'0 0.0
2018-Apr-17 18:39N 40°25' W 074°02'0 0.0
2018-Apr-17 18:29N 40°25' W 074°02'0 0.0
2018-Apr-17 17:57N 40°25' W 074°02'0 0.0
2018-Apr-17 17:30N 40°25' W 074°02'0 0.0
2018-Apr-17 16:59N 40°25' W 074°02'0 0.0
2018-Apr-17 16:28N 40°25' W 074°02'0 0.0
2018-Apr-17 15:59N 40°25' W 074°02'0 0.0
2018-Apr-17 15:29N 40°25' W 074°02'0 0.0
2018-Apr-17 15:00N 40°25' W 074°02'0 0.0
2018-Apr-17 14:30N 40°25' W 074°02'0 0.0
2018-Apr-17 13:59N 40°25' W 074°02'0 0.0
2018-Apr-17 13:11N 40°25' W 074°02'0 0.0
2018-Apr-17 12:59N 40°25' W 074°02'0 0.0
2018-Apr-17 12:28N 40°25' W 074°02'0 0.0
2018-Apr-17 11:59N 40°25' W 074°02'0 0.0
2018-Apr-17 11:28N 40°25' W 074°02'0 0.0
2018-Apr-17 11:00N 40°25' W 074°02'0 0.0
2018-Apr-17 10:28N 40°25' W 074°02'0 0.0
2018-Apr-17 10:00N 40°25' W 074°02'0 0.0
2018-Apr-17 09:30N 40°25' W 074°02'0 0.0
2018-Apr-17 08:58N 40°25' W 074°02'0 0.0
2018-Apr-17 08:30N 40°25' W 074°02'0 0.0
2018-Apr-17 08:00N 40°25' W 074°02'0 0.0
2018-Apr-17 07:27N 40°25' W 074°02'0 0.0
2018-Apr-17 07:00N 40°25' W 074°02'0 0.0
2018-Apr-17 06:30N 40°25' W 074°02'0 0.0
2018-Apr-17 05:57N 40°25' W 074°02'0 0.0
2018-Apr-17 05:29N 40°25' W 074°02'0 0.0
2018-Apr-17 05:00N 40°25' W 074°02'0 0.0
2018-Apr-17 03:22N 40°25' W 074°02'2 4.9
2018-Apr-17 03:00N 40°25' W 073°60'613.1
2018-Apr-17 02:30N 40°31' W 074°02'1223.3
2018-Apr-17 02:01N 40°42' W 074°00'3 5.7
2018-Apr-17 01:30N 40°45' W 073°58'919.2
2018-Apr-17 01:00N 40°36' W 074°02'1117.2
2018-Apr-17 00:20N 40°25' W 073°60'0 0.1
2018-Apr-16 23:55N 40°25' W 073°60'0 0.0
2018-Apr-16 23:30N 40°25' W 073°60'0 0.0
2018-Apr-16 23:00N 40°25' W 073°60'0 0.0
2018-Apr-16 22:30N 40°25' W 073°60'2 3.7
2018-Apr-16 22:00N 40°25' W 074°02'1224.0
2018-Apr-16 21:30N 40°37' W 074°03'510.9
2018-Apr-16 21:00N 40°42' W 074°00'1120.8
2018-Apr-16 20:28N 40°31' W 074°02'612.9
2018-Apr-16 20:01N 40°25' W 074°02'0 0.0
2018-Apr-16 19:29N 40°25' W 074°02'0 0.0
2018-Apr-16 19:00N 40°25' W 074°02'0 0.0
2018-Apr-16 18:30N 40°25' W 074°02'  
2018-Apr-14 03:13N 40°25' W 074°02'2 8.9
2018-Apr-14 03:01N 40°25' W 073°60'712.4
2018-Apr-14 02:28N 40°31' W 074°03'1124.9
2018-Apr-14 02:00N 40°42' W 074°00'3 5.7
2018-Apr-14 01:30N 40°45' W 073°58'917.9
2018-Apr-14 01:00N 40°36' W 074°03'1223.3
2018-Apr-14 00:30N 40°25' W 073°60'0 0.0
2018-Apr-14 00:00N 40°25' W 073°60'0 0.1
2018-Apr-13 23:28N 40°25' W 073°60'0 0.0
2018-Apr-13 22:59N 40°25' W 073°60'  
Track history (hours):
 
Tides and Currents Weather Stations Pressure Air Temp Water Temp Dewpoint Dewpoint Depression Visibility Wind Speed Wind Dir Waves Ship Positions

Martha's Vineyard Express

Owner: Interlake Leasing IV, Stamford, CT. More information available from US FCC via Universal Licensing System and Coast Guard Vessel Documentation Center.

Last reported at 2018-Apr-23 22:44 UTC. Time now 2018-Apr-24 01:10 UTC.
Position N 40°31' W 074°02'.

; draft 2.1 m.

Type: High speed craft. MMSI: 367036190.

Date/timePositionNaut miles runAvg speedWind from/ knotsBaromVisibWave heightAir tempDewpointWater temp
2018-Apr-23 22:44N 40°31' W 074°02'626.8
2018-Apr-23 22:30N 40°37' W 074°03'5 9.5
2018-Apr-23 22:01N 40°41' W 074°01'11 8.8
2018-Apr-23 20:46N 40°30' W 074°02'725.5
2018-Apr-23 20:30N 40°37' W 074°03'611.6
2018-Apr-23 20:00N 40°42' W 073°60'2 5.1
2018-Apr-23 19:30N 40°40' W 074°01'5 0.7
2018-Apr-23 12:54N 40°36' W 074°02'7 9.6
2018-Apr-23 12:12N 40°42' W 074°00'1 5.7
2018-Apr-23 12:00N 40°41' W 074°01'11 1.0
2018-Apr-23 01:14N 40°31' W 074°02'628.3
2018-Apr-23 01:01N 40°37' W 074°03'816.8
2018-Apr-23 00:30N 40°45' W 073°58'918.4
2018-Apr-23 00:01N 40°36' W 074°03'5 3.3
2018-Apr-22 22:21N 40°31' W 074°02'926.4
2018-Apr-22 22:01N 40°39' W 074°02'4 8.0
2018-Apr-22 21:30N 40°43' W 073°58'714.0
2018-Apr-22 21:01N 40°36' W 074°03'6 6.4
2018-Apr-22 20:02N 40°30' W 074°02'126.5
2018-Apr-22 19:59N 40°32' W 074°02'1122.0
2018-Apr-22 19:30N 40°42' W 074°00'1 1.4
2018-Apr-22 19:01N 40°42' W 073°59'11 9.0
2018-Apr-22 17:48N 40°32' W 074°02'725.2
2018-Apr-22 17:31N 40°39' W 074°02'612.1
2018-Apr-22 17:00N 40°44' W 073°58'917.9
2018-Apr-22 16:31N 40°36' W 074°03'6 5.1
2018-Apr-22 15:23N 40°30' W 074°02'925.6
2018-Apr-22 15:01N 40°40' W 074°01'4 7.5
2018-Apr-22 14:31N 40°43' W 073°58'816.8
2018-Apr-22 14:00N 40°35' W 074°03'11 0.9
2018-Apr-22 01:46N 40°25' W 073°60'2 6.3
2018-Apr-22 01:29N 40°26' W 074°01'1327.3
2018-Apr-22 01:01N 40°39' W 074°02'612.6
2018-Apr-22 00:30N 40°45' W 073°58'1020.3
2018-Apr-22 00:00N 40°35' W 074°03'1121.6
2018-Apr-21 23:30N 40°25' W 073°60'0 0.0
2018-Apr-21 23:00N 40°25' W 073°60'3 6.7
2018-Apr-21 22:30N 40°28' W 074°01'1427.3
2018-Apr-21 22:01N 40°41' W 074°02'3 5.5
2018-Apr-21 21:31N 40°43' W 073°59'713.8
2018-Apr-21 21:01N 40°36' W 074°03'1217.1
2018-Apr-21 20:18N 40°25' W 073°60'619.5
2018-Apr-21 20:00N 40°30' W 074°02'1223.8
2018-Apr-21 19:30N 40°42' W 074°00'0 0.7
2018-Apr-21 19:00N 40°42' W 074°00'1325.2
2018-Apr-21 18:30N 40°29' W 074°02'2 4.8
2018-Apr-21 18:00N 40°27' W 074°01'1325.6
2018-Apr-21 17:31N 40°39' W 074°02'5 9.5
2018-Apr-21 17:00N 40°43' W 073°58'816.2
2018-Apr-21 16:30N 40°36' W 074°02'1122.4
2018-Apr-21 16:00N 40°25' W 073°60'4 8.6
2018-Apr-21 15:30N 40°29' W 074°02'1225.2
2018-Apr-21 15:00N 40°41' W 074°01'3 5.4
2018-Apr-21 14:31N 40°43' W 073°58'816.5
2018-Apr-21 14:00N 40°35' W 074°02'1018.9
2018-Apr-21 13:27N 40°25' W 073°60'0 0.0
2018-Apr-21 13:00N 40°25' W 073°60'0 0.0
2018-Apr-21 03:14N 40°25' W 073°60'0 0.2
2018-Apr-21 02:59N 40°25' W 073°60'714.3
2018-Apr-21 02:30N 40°31' W 074°02'1122.5
2018-Apr-21 02:00N 40°42' W 074°00'2 4.7
2018-Apr-21 01:31N 40°44' W 073°58'1019.1
2018-Apr-21 01:00N 40°35' W 074°03'1120.7
2018-Apr-21 00:30N 40°25' W 073°60'0 0.1
2018-Apr-20 23:59N 40°25' W 073°60'0 0.2
2018-Apr-20 23:30N 40°25' W 073°60'0 0.2
2018-Apr-20 22:58N 40°25' W 073°60'1226.1
2018-Apr-20 22:31N 40°37' W 074°03'510.9
2018-Apr-20 22:00N 40°42' W 074°00'1223.5
2018-Apr-20 21:30N 40°30' W 074°02'6 9.8
2018-Apr-20 20:56N 40°25' W 073°60'1124.4
2018-Apr-20 20:30N 40°35' W 074°03'816.6
2018-Apr-20 20:00N 40°43' W 073°58'4 7.3
2018-Apr-20 19:30N 40°40' W 074°01'1223.9
2018-Apr-20 19:00N 40°28' W 074°02'3 6.4
2018-Apr-20 18:29N 40°25' W 073°60'0 0.0
2018-Apr-20 17:58N 40°25' W 073°60'0 0.0
2018-Apr-20 17:16N 40°25' W 073°60'0 0.0
2018-Apr-20 17:00N 40°25' W 073°60'0 0.0
2018-Apr-20 16:30N 40°25' W 073°60'0 0.0
2018-Apr-20 15:59N 40°25' W 073°60'0 0.0
2018-Apr-20 15:29N 40°25' W 073°60'0 0.0
2018-Apr-20 14:58N 40°25' W 073°60'0 0.0
2018-Apr-20 13:28N 40°25' W 073°60'1124.1
2018-Apr-20 13:00N 40°35' W 074°02'1019.5
2018-Apr-20 12:31N 40°45' W 073°58'815.0
2018-Apr-20 12:00N 40°38' W 074°03'1324.3
2018-Apr-20 11:29N 40°25' W 074°01'1 0.1
2018-Apr-20 03:15N 40°25' W 073°60'0 0.1
2018-Apr-20 03:00N 40°25' W 073°60'814.4
2018-Apr-20 02:28N 40°32' W 074°02'1022.4
2018-Apr-20 02:00N 40°42' W 074°00'3 5.8
2018-Apr-20 01:29N 40°45' W 073°58'1020.6
2018-Apr-20 01:00N 40°35' W 074°03'1121.2
2018-Apr-20 00:29N 40°25' W 073°60'0 0.1
2018-Apr-19 23:50N 40°25' W 073°60'0 0.0
2018-Apr-19 23:28N 40°25' W 073°60'0 0.1
2018-Apr-19 22:59N 40°25' W 073°60'1225.3
2018-Apr-19 22:31N 40°36' W 074°03'612.0
2018-Apr-19 22:01N 40°42' W 074°00'1121.5
2018-Apr-19 21:30N 40°32' W 074°02'713.2
2018-Apr-19 20:58N 40°25' W 073°60'1225.5
2018-Apr-19 20:30N 40°36' W 074°03'613.0
2018-Apr-19 20:01N 40°42' W 074°00'2 4.8
2018-Apr-19 19:31N 40°40' W 074°01'1224.0
2018-Apr-19 19:00N 40°28' W 074°01'3 6.6
2018-Apr-19 18:29N 40°25' W 073°60'0 0.0
2018-Apr-19 18:00N 40°25' W 073°60'0 0.0
2018-Apr-19 17:27N 40°25' W 073°60'0 0.0
2018-Apr-19 16:55N 40°25' W 073°60'0 0.0
2018-Apr-19 16:02N 40°25' W 073°60'0 0.1
2018-Apr-19 15:58N 40°25' W 073°60'0 0.0
2018-Apr-19 15:30N 40°25' W 073°60'0 0.0
2018-Apr-19 15:00N 40°25' W 073°60'0 0.0
2018-Apr-19 14:29N 40°25' W 073°60'0 0.0
2018-Apr-19 13:59N 40°25' W 073°60'0 0.0
2018-Apr-19 13:21N 40°25' W 073°60'821.3
2018-Apr-19 12:59N 40°32' W 074°02'1123.1
2018-Apr-19 12:31N 40°43' W 073°59'2 4.7
2018-Apr-19 12:01N 40°41' W 074°01'1325.0
2018-Apr-19 11:30N 40°28' W 074°02'3 5.5
2018-Apr-19 10:59N 40°25' W 074°02'2 3.5
2018-Apr-19 10:30N 40°25' W 073°60'0 0.0
2018-Apr-18 23:18N 40°25' W 073°60'0 0.1
2018-Apr-18 22:59N 40°25' W 073°60'1019.9
2018-Apr-18 22:30N 40°34' W 074°02'1122.2
2018-Apr-18 22:01N 40°45' W 073°58'611.8
2018-Apr-18 21:31N 40°39' W 074°02'1223.6
2018-Apr-18 21:00N 40°27' W 074°01'3 1.3
2018-Apr-18 18:44N 40°25' W 073°60'1 4.7
2018-Apr-18 18:30N 40°25' W 074°01'1018.9
2018-Apr-18 18:00N 40°35' W 074°02'817.0
2018-Apr-18 17:31N 40°43' W 073°59'3 6.1
2018-Apr-18 17:01N 40°40' W 074°01'1224.7
2018-Apr-18 16:30N 40°28' W 074°02'0 0.3
2018-Apr-18 16:00N 40°28' W 074°01'1326.0
2018-Apr-18 15:31N 40°41' W 074°02'5 9.1
2018-Apr-18 15:00N 40°44' W 073°58'816.5
2018-Apr-18 14:30N 40°37' W 074°03'1223.3
2018-Apr-18 14:00N 40°25' W 074°02'2 3.8
2018-Apr-18 13:30N 40°25' W 073°60'0 0.1
2018-Apr-18 13:00N 40°25' W 073°60'0 0.0
2018-Apr-18 12:29N 40°25' W 073°60'0 0.0
2018-Apr-18 12:00N 40°25' W 073°60'0 0.0
2018-Apr-18 11:30N 40°25' W 073°60'0 0.0
2018-Apr-17 22:01N 40°25' W 073°60'0 2.7
2018-Apr-17 22:00N 40°25' W 073°60'2 3.1
2018-Apr-17 21:25N 40°25' W 074°02'0 0.0
2018-Apr-17 21:00N 40°25' W 074°02'0 0.0
2018-Apr-17 20:26N 40°25' W 074°02'0 0.0
2018-Apr-17 20:00N 40°25' W 074°02'0 0.0
2018-Apr-17 18:39N 40°25' W 074°02'0 0.0
2018-Apr-17 18:29N 40°25' W 074°02'0 0.0
2018-Apr-17 17:57N 40°25' W 074°02'0 0.0
2018-Apr-17 17:30N 40°25' W 074°02'0 0.0
2018-Apr-17 16:59N 40°25' W 074°02'0 0.0
2018-Apr-17 16:28N 40°25' W 074°02'0 0.0
2018-Apr-17 15:59N 40°25' W 074°02'0 0.0
2018-Apr-17 15:29N 40°25' W 074°02'0 0.0
2018-Apr-17 15:00N 40°25' W 074°02'0 0.0
2018-Apr-17 14:30N 40°25' W 074°02'0 0.0
2018-Apr-17 13:59N 40°25' W 074°02'0 0.0
2018-Apr-17 13:11N 40°25' W 074°02'0 0.0
2018-Apr-17 12:59N 40°25' W 074°02'0 0.0
2018-Apr-17 12:28N 40°25' W 074°02'0 0.0
2018-Apr-17 11:59N 40°25' W 074°02'0 0.0
2018-Apr-17 11:28N 40°25' W 074°02'0 0.0
2018-Apr-17 11:00N 40°25' W 074°02'0 0.0
2018-Apr-17 10:28N 40°25' W 074°02'0 0.0
2018-Apr-17 10:00N 40°25' W 074°02'0 0.0
2018-Apr-17 09:30N 40°25' W 074°02'0 0.0
2018-Apr-17 08:58N 40°25' W 074°02'0 0.0
2018-Apr-17 08:30N 40°25' W 074°02'0 0.0
2018-Apr-17 08:00N 40°25' W 074°02'0 0.0
2018-Apr-17 07:27N 40°25' W 074°02'0 0.0
2018-Apr-17 07:00N 40°25' W 074°02'0 0.0
2018-Apr-17 06:30N 40°25' W 074°02'0 0.0
2018-Apr-17 05:57N 40°25' W 074°02'0 0.0
2018-Apr-17 05:29N 40°25' W 074°02'0 0.0
2018-Apr-17 05:00N 40°25' W 074°02'0 0.0
2018-Apr-17 03:22N 40°25' W 074°02'2 4.9
2018-Apr-17 03:00N 40°25' W 073°60'613.1
2018-Apr-17 02:30N 40°31' W 074°02'1223.3
2018-Apr-17 02:01N 40°42' W 074°00'3 5.7
2018-Apr-17 01:30N 40°45' W 073°58'919.2
2018-Apr-17 01:00N 40°36' W 074°02'1117.2
2018-Apr-17 00:20N 40°25' W 073°60'0 0.1
2018-Apr-16 23:55N 40°25' W 073°60'0 0.0
2018-Apr-16 23:30N 40°25' W 073°60'0 0.0
2018-Apr-16 23:00N 40°25' W 073°60'0 0.0
2018-Apr-16 22:30N 40°25' W 073°60'2 3.7
2018-Apr-16 22:00N 40°25' W 074°02'1224.0
2018-Apr-16 21:30N 40°37' W 074°03'510.9
2018-Apr-16 21:00N 40°42' W 074°00'1120.8
2018-Apr-16 20:28N 40°31' W 074°02'612.9
2018-Apr-16 20:01N 40°25' W 074°02'0 0.0
2018-Apr-16 19:29N 40°25' W 074°02'0 0.0
2018-Apr-16 19:00N 40°25' W 074°02'0 0.0
2018-Apr-16 18:30N 40°25' W 074°02'  
2018-Apr-14 03:13N 40°25' W 074°02'2 8.9
2018-Apr-14 03:01N 40°25' W 073°60'712.4
2018-Apr-14 02:28N 40°31' W 074°03'1124.9
2018-Apr-14 02:00N 40°42' W 074°00'3 5.7
2018-Apr-14 01:30N 40°45' W 073°58'917.9
2018-Apr-14 01:00N 40°36' W 074°03'1223.3
2018-Apr-14 00:30N 40°25' W 073°60'0 0.0
2018-Apr-14 00:00N 40°25' W 073°60'0 0.1
2018-Apr-13 23:28N 40°25' W 073°60'0 0.0
2018-Apr-13 22:59N 40°25' W 073°60'  

Dump ship's entire track history